sensor_id;sensor_type;location;lat;lon;timestamp;pressure;altitude;pressure_sealevel;temperature;humidity
44825;BME280;30542;47.928;2.138;2023-08-17T00:01:19;100446.47;;;25.08;57.14
44825;BME280;30542;47.928;2.138;2023-08-17T00:06:19;100444.88;;;25.07;57.07
44825;BME280;30542;47.928;2.138;2023-08-17T00:11:20;100445.69;;;25.07;56.94
44825;BME280;30542;47.928;2.138;2023-08-17T00:16:20;100439.81;;;25.05;56.84
44825;BME280;30542;47.928;2.138;2023-08-17T00:21:21;100446.00;;;25.05;56.76
44825;BME280;30542;47.928;2.138;2023-08-17T00:26:21;100441.19;;;25.02;56.59
44825;BME280;30542;47.928;2.138;2023-08-17T00:31:21;100457.03;;;25.04;56.66
44825;BME280;30542;47.928;2.138;2023-08-17T00:36:22;100455.47;;;25.03;56.55
44825;BME280;30542;47.928;2.138;2023-08-17T00:41:22;100450.38;;;25.01;56.43
44825;BME280;30542;47.928;2.138;2023-08-17T00:46:23;100449.25;;;25.02;56.55
44825;BME280;30542;47.928;2.138;2023-08-17T00:51:25;100438.50;;;25.02;56.63
44825;BME280;30542;47.928;2.138;2023-08-17T00:56:26;100437.97;;;25.00;56.59
44825;BME280;30542;47.928;2.138;2023-08-17T01:01:27;100437.16;;;25.00;56.42
44825;BME280;30542;47.928;2.138;2023-08-17T01:06:28;100436.38;;;24.99;56.46
44825;BME280;30542;47.928;2.138;2023-08-17T01:12:04;100432.88;;;24.99;56.37
44825;BME280;30542;47.928;2.138;2023-08-17T01:17:22;100430.50;;;24.97;56.22
44825;BME280;30542;47.928;2.138;2023-08-17T01:22:26;100423.28;;;24.93;56.34
44825;BME280;30542;47.928;2.138;2023-08-17T01:27:41;100432.66;;;24.95;56.12
44825;BME280;30542;47.928;2.138;2023-08-17T01:32:51;100434.25;;;24.96;56.15
44825;BME280;30542;47.928;2.138;2023-08-17T01:37:58;100429.19;;;24.95;55.98
44825;BME280;30542;47.928;2.138;2023-08-17T01:43:01;100445.66;;;24.93;56.22
44825;BME280;30542;47.928;2.138;2023-08-17T01:48:02;100439.16;;;24.94;56.02
44825;BME280;30542;47.928;2.138;2023-08-17T01:53:03;100447.25;;;24.94;56.20
44825;BME280;30542;47.928;2.138;2023-08-17T01:58:03;100439.47;;;24.93;56.13
44825;BME280;30542;47.928;2.138;2023-08-17T02:03:04;100448.34;;;24.93;56.08
44825;BME280;30542;47.928;2.138;2023-08-17T02:08:04;100437.84;;;24.92;56.14
44825;BME280;30542;47.928;2.138;2023-08-17T02:13:05;100440.25;;;24.93;56.03
44825;BME280;30542;47.928;2.138;2023-08-17T02:18:05;100440.03;;;24.90;55.85
44825;BME280;30542;47.928;2.138;2023-08-17T02:23:05;100442.44;;;24.91;55.98
44825;BME280;30542;47.928;2.138;2023-08-17T02:28:06;100440.31;;;24.88;55.80
44825;BME280;30542;47.928;2.138;2023-08-17T02:33:06;100428.47;;;24.89;55.69
44825;BME280;30542;47.928;2.138;2023-08-17T02:38:06;100444.63;;;24.89;55.79
44825;BME280;30542;47.928;2.138;2023-08-17T02:43:07;100443.63;;;24.85;55.62
44825;BME280;30542;47.928;2.138;2023-08-17T02:48:07;100449.50;;;24.87;55.57
44825;BME280;30542;47.928;2.138;2023-08-17T02:53:08;100450.03;;;24.89;55.62
44825;BME280;30542;47.928;2.138;2023-08-17T02:58:08;100445.44;;;24.90;55.58
44825;BME280;30542;47.928;2.138;2023-08-17T03:03:09;100438.72;;;24.87;55.57
44825;BME280;30542;47.928;2.138;2023-08-17T03:08:09;100436.03;;;24.87;55.52
44825;BME280;30542;47.928;2.138;2023-08-17T03:13:09;100430.16;;;24.85;55.49
44825;BME280;30542;47.928;2.138;2023-08-17T03:18:10;100420.44;;;24.84;55.48
44825;BME280;30542;47.928;2.138;2023-08-17T03:23:10;100410.78;;;24.83;55.33
44825;BME280;30542;47.928;2.138;2023-08-17T03:28:11;100412.66;;;24.83;55.41
44825;BME280;30542;47.928;2.138;2023-08-17T03:33:11;100406.47;;;24.82;55.44
44825;BME280;30542;47.928;2.138;2023-08-17T03:38:12;100409.19;;;24.82;55.25
44825;BME280;30542;47.928;2.138;2023-08-17T03:43:13;100416.47;;;24.82;55.17
44825;BME280;30542;47.928;2.138;2023-08-17T03:48:14;100424.84;;;24.80;55.17
44825;BME280;30542;47.928;2.138;2023-08-17T03:53:14;100422.72;;;24.77;55.03
44825;BME280;30542;47.928;2.138;2023-08-17T03:58:15;100426.53;;;24.76;55.06
44825;BME280;30542;47.928;2.138;2023-08-17T04:03:15;100433.22;;;24.78;55.08
44825;BME280;30542;47.928;2.138;2023-08-17T04:08:16;100443.50;;;24.76;55.03
44825;BME280;30542;47.928;2.138;2023-08-17T04:13:16;100437.31;;;24.76;55.03
44825;BME280;30542;47.928;2.138;2023-08-17T04:18:16;100437.56;;;24.74;54.94
44825;BME280;30542;47.928;2.138;2023-08-17T04:23:17;100423.88;;;24.71;55.13
44825;BME280;30542;47.928;2.138;2023-08-17T04:28:17;100428.41;;;24.75;55.05
44825;BME280;30542;47.928;2.138;2023-08-17T04:33:17;100416.81;;;24.75;55.11
44825;BME280;30542;47.928;2.138;2023-08-17T04:38:18;100421.72;;;24.73;55.20
44825;BME280;30542;47.928;2.138;2023-08-17T04:43:18;100421.72;;;24.73;54.99
44825;BME280;30542;47.928;2.138;2023-08-17T04:48:19;100433.59;;;24.72;55.01
44825;BME280;30542;47.928;2.138;2023-08-17T04:53:19;100418.00;;;24.69;54.99
44825;BME280;30542;47.928;2.138;2023-08-17T04:58:19;100426.59;;;24.71;54.75
44825;BME280;30542;47.928;2.138;2023-08-17T05:03:20;100418.81;;;24.69;54.78
44825;BME280;30542;47.928;2.138;2023-08-17T05:08:20;100423.41;;;24.69;54.82
44825;BME280;30542;47.928;2.138;2023-08-17T05:13:22;100423.41;;;24.69;54.64
44825;BME280;30542;47.928;2.138;2023-08-17T05:18:22;100420.97;;;24.67;54.92
44825;BME280;30542;47.928;2.138;2023-08-17T05:23:22;100420.78;;;24.64;54.72
44825;BME280;30542;47.928;2.138;2023-08-17T05:28:23;100419.78;;;24.60;54.97
44825;BME280;30542;47.928;2.138;2023-08-17T05:33:23;100416.63;;;24.52;54.88
44825;BME280;30542;47.928;2.138;2023-08-17T05:38:23;100409.72;;;24.46;55.00
44825;BME280;30542;47.928;2.138;2023-08-17T05:43:24;100410.38;;;24.38;55.24
44825;BME280;30542;47.928;2.138;2023-08-17T05:48:25;100416.81;;;24.37;55.32
44825;BME280;30542;47.928;2.138;2023-08-17T05:53:25;100405.03;;;24.33;55.82
44825;BME280;30542;47.928;2.138;2023-08-17T05:58:26;100406.44;;;24.30;55.79
44825;BME280;30542;47.928;2.138;2023-08-17T06:03:26;100420.69;;;24.31;55.87
44825;BME280;30542;47.928;2.138;2023-08-17T06:08:26;100414.78;;;24.29;56.10
44825;BME280;30542;47.928;2.138;2023-08-17T06:13:27;100418.56;;;24.28;56.13
44825;BME280;30542;47.928;2.138;2023-08-17T06:18:27;100421.25;;;24.28;56.13
44825;BME280;30542;47.928;2.138;2023-08-17T06:23:27;100420.16;;;24.29;56.44
44825;BME280;30542;47.928;2.138;2023-08-17T06:28:28;100415.31;;;24.31;56.71
44825;BME280;30542;47.928;2.138;2023-08-17T06:33:28;100418.78;;;24.31;56.68
44825;BME280;30542;47.928;2.138;2023-08-17T06:38:29;100423.66;;;24.29;56.94
44825;BME280;30542;47.928;2.138;2023-08-17T06:43:29;100423.88;;;24.33;57.11
44825;BME280;30542;47.928;2.138;2023-08-17T06:48:29;100424.09;;;24.37;57.32
44825;BME280;30542;47.928;2.138;2023-08-17T06:53:31;100420.06;;;24.39;57.16
44825;BME280;30542;47.928;2.138;2023-08-17T06:58:31;100420.56;;;24.41;57.26
44825;BME280;30542;47.928;2.138;2023-08-17T07:03:32;100429.22;;;24.38;57.67
44825;BME280;30542;47.928;2.138;2023-08-17T07:08:33;100435.16;;;24.35;58.02
44825;BME280;30542;47.928;2.138;2023-08-17T07:13:33;100449.13;;;24.37;58.32
44825;BME280;30542;47.928;2.138;2023-08-17T07:18:34;100438.91;;;24.39;58.57
44825;BME280;30542;47.928;2.138;2023-08-17T07:23:34;100453.97;;;24.40;58.65
44825;BME280;30542;47.928;2.138;2023-08-17T07:28:35;100443.69;;;24.42;58.65
44825;BME280;30542;47.928;2.138;2023-08-17T07:33:35;100444.78;;;24.41;59.07
44825;BME280;30542;47.928;2.138;2023-08-17T07:38:36;100445.38;;;24.38;58.97
44825;BME280;30542;47.928;2.138;2023-08-17T07:43:36;100438.59;;;24.41;59.28
44825;BME280;30542;47.928;2.138;2023-08-17T07:48:36;100444.72;;;24.46;59.24
44825;BME280;30542;47.928;2.138;2023-08-17T07:53:36;100408.03;;;24.31;59.09
44825;BME280;30542;47.928;2.138;2023-08-17T07:58:37;100435.09;;;24.59;58.65
44825;BME280;30542;47.928;2.138;2023-08-17T08:03:37;100432.63;;;24.63;58.50
44825;BME280;30542;47.928;2.138;2023-08-17T08:08:39;100433.16;;;24.65;58.28
44825;BME280;30542;47.928;2.138;2023-08-17T08:13:39;100434.66;;;24.71;57.90
44825;BME280;30542;47.928;2.138;2023-08-17T08:18:39;100434.09;;;24.74;57.91
44825;BME280;30542;47.928;2.138;2023-08-17T08:23:40;100432.72;;;24.76;57.78
44825;BME280;30542;47.928;2.138;2023-08-17T08:28:40;100430.91;;;24.72;57.71
44825;BME280;30542;47.928;2.138;2023-08-17T08:33:40;100427.91;;;24.73;57.57
44825;BME280;30542;47.928;2.138;2023-08-17T08:38:41;100420.03;;;24.77;57.47
44825;BME280;30542;47.928;2.138;2023-08-17T08:43:41;100418.34;;;24.81;57.54
44825;BME280;30542;47.928;2.138;2023-08-17T08:48:42;100409.66;;;24.84;57.60
44825;BME280;30542;47.928;2.138;2023-08-17T08:53:45;100409.88;;;24.88;57.70
44825;BME280;30542;47.928;2.138;2023-08-17T08:58:47;100399.63;;;24.90;57.86
44825;BME280;30542;47.928;2.138;2023-08-17T09:03:47;100406.03;;;24.94;57.82
44825;BME280;30542;47.928;2.138;2023-08-17T09:08:49;100398.22;;;24.92;57.67
44825;BME280;30542;47.928;2.138;2023-08-17T09:13:49;100395.75;;;24.96;57.62
44825;BME280;30542;47.928;2.138;2023-08-17T09:18:52;100399.44;;;25.00;57.72
44825;BME280;30542;47.928;2.138;2023-08-17T09:23:55;100389.75;;;24.99;57.65
44825;BME280;30542;47.928;2.138;2023-08-17T09:28:56;100393.47;;;25.03;57.75
44825;BME280;30542;47.928;2.138;2023-08-17T09:33:58;100385.84;;;25.10;57.55
44825;BME280;30542;47.928;2.138;2023-08-17T09:38:58;100375.84;;;25.11;57.36
44825;BME280;30542;47.928;2.138;2023-08-17T09:44:00;100378.25;;;25.12;57.46
44825;BME280;30542;47.928;2.138;2023-08-17T09:49:04;100371.97;;;25.17;57.78
44825;BME280;30542;47.928;2.138;2023-08-17T09:54:06;100370.25;;;25.21;57.83
44825;BME280;30542;47.928;2.138;2023-08-17T09:59:06;100367.28;;;25.22;57.78
44825;BME280;30542;47.928;2.138;2023-08-17T10:04:06;100362.91;;;25.26;57.90
44825;BME280;30542;47.928;2.138;2023-08-17T10:09:08;100366.88;;;25.29;57.61
44825;BME280;30542;47.928;2.138;2023-08-17T10:14:19;100365.28;;;25.28;57.81
44825;BME280;30542;47.928;2.138;2023-08-17T10:19:28;100357.78;;;25.25;57.66
44825;BME280;30542;47.928;2.138;2023-08-17T10:24:32;100357.31;;;25.23;57.74
44825;BME280;30542;47.928;2.138;2023-08-17T10:29:36;100345.72;;;25.22;57.65
44825;BME280;30542;47.928;2.138;2023-08-17T10:34:38;100352.50;;;25.20;57.52
44825;BME280;30542;47.928;2.138;2023-08-17T10:39:45;100348.81;;;25.16;57.26
44825;BME280;30542;47.928;2.138;2023-08-17T10:44:49;100353.41;;;25.15;57.49
44825;BME280;30542;47.928;2.138;2023-08-17T10:50:03;100349.31;;;25.18;57.40
44825;BME280;30542;47.928;2.138;2023-08-17T10:55:05;100338.03;;;25.16;57.17
44825;BME280;30542;47.928;2.138;2023-08-17T11:00:21;100333.31;;;25.21;57.06
44825;BME280;30542;47.928;2.138;2023-08-17T11:05:36;100330.84;;;25.25;57.77
44825;BME280;30542;47.928;2.138;2023-08-17T11:10:40;100334.44;;;25.34;57.89
44825;BME280;30542;47.928;2.138;2023-08-17T11:15:41;100323.34;;;25.36;57.93
44825;BME280;30542;47.928;2.138;2023-08-17T11:20:43;100321.28;;;25.46;58.19
44825;BME280;30542;47.928;2.138;2023-08-17T11:25:44;100321.75;;;25.48;58.21
44825;BME280;30542;47.928;2.138;2023-08-17T11:30:44;100322.75;;;25.52;57.95
44825;BME280;30542;47.928;2.138;2023-08-17T11:35:44;100322.16;;;25.56;58.21
44825;BME280;30542;47.928;2.138;2023-08-17T11:40:46;100325.34;;;25.58;58.12
44825;BME280;30542;47.928;2.138;2023-08-17T11:45:46;100318.84;;;25.59;58.03
44825;BME280;30542;47.928;2.138;2023-08-17T11:50:48;100324.16;;;25.64;57.86
44825;BME280;30542;47.928;2.138;2023-08-17T11:55:48;100320.34;;;25.65;57.52
44825;BME280;30542;47.928;2.138;2023-08-17T12:00:49;100308.94;;;25.68;57.90
44825;BME280;30542;47.928;2.138;2023-08-17T12:05:50;100318.63;;;25.69;57.78
44825;BME280;30542;47.928;2.138;2023-08-17T12:10:52;100298.16;;;25.68;57.50
44825;BME280;30542;47.928;2.138;2023-08-17T12:15:52;100295.84;;;25.75;57.16
44825;BME280;30542;47.928;2.138;2023-08-17T12:20:53;100302.84;;;25.76;57.69
44825;BME280;30542;47.928;2.138;2023-08-17T12:25:54;100283.25;;;25.70;57.12
44825;BME280;30542;47.928;2.138;2023-08-17T12:30:59;100295.94;;;25.84;57.19
44825;BME280;30542;47.928;2.138;2023-08-17T12:36:00;100290.72;;;25.87;56.91
44825;BME280;30542;47.928;2.138;2023-08-17T12:41:00;100292.03;;;25.90;56.79
44825;BME280;30542;47.928;2.138;2023-08-17T12:46:01;100291.13;;;25.94;57.04
44825;BME280;30542;47.928;2.138;2023-08-17T12:51:01;100258.78;;;25.81;56.89
44825;BME280;30542;47.928;2.138;2023-08-17T12:56:02;100284.94;;;25.94;57.10
44825;BME280;30542;47.928;2.138;2023-08-17T13:01:02;100277.63;;;25.94;56.89
44825;BME280;30542;47.928;2.138;2023-08-17T13:06:03;100281.31;;;25.98;57.01
44825;BME280;30542;47.928;2.138;2023-08-17T13:11:03;100270.19;;;26.00;56.69
44825;BME280;30542;47.928;2.138;2023-08-17T13:16:04;100277.69;;;26.03;56.46
44825;BME280;30542;47.928;2.138;2023-08-17T13:21:04;100275.31;;;26.01;56.45
44825;BME280;30542;47.928;2.138;2023-08-17T13:26:04;100261.03;;;26.01;56.77
44825;BME280;30542;47.928;2.138;2023-08-17T13:31:05;100265.78;;;26.04;56.83
44825;BME280;30542;47.928;2.138;2023-08-17T13:36:05;100256.63;;;26.05;56.92
44825;BME280;30542;47.928;2.138;2023-08-17T13:41:06;100257.09;;;26.07;56.92
44825;BME280;30542;47.928;2.138;2023-08-17T13:46:06;100264.25;;;26.12;56.29
44825;BME280;30542;47.928;2.138;2023-08-17T13:51:07;100253.19;;;26.13;56.38
44825;BME280;30542;47.928;2.138;2023-08-17T13:56:07;100248.88;;;26.12;56.05
44825;BME280;30542;47.928;2.138;2023-08-17T14:01:08;100239.97;;;26.12;56.44
44825;BME280;30542;47.928;2.138;2023-08-17T14:06:09;100236.28;;;26.08;56.30
44825;BME280;30542;47.928;2.138;2023-08-17T14:11:10;100227.78;;;26.14;56.36
44825;BME280;30542;47.928;2.138;2023-08-17T14:16:10;100230.78;;;26.13;56.44
44825;BME280;30542;47.928;2.138;2023-08-17T14:21:11;100220.28;;;26.11;56.58
44825;BME280;30542;47.928;2.138;2023-08-17T14:26:11;100218.88;;;26.14;56.14
44825;BME280;30542;47.928;2.138;2023-08-17T14:31:11;100204.88;;;26.12;56.20
44825;BME280;30542;47.928;2.138;2023-08-17T14:36:16;100206.16;;;26.14;56.36
44825;BME280;30542;47.928;2.138;2023-08-17T14:41:16;100206.97;;;26.15;55.95
44825;BME280;30542;47.928;2.138;2023-08-17T14:46:17;100200.47;;;26.16;56.27
44825;BME280;30542;47.928;2.138;2023-08-17T14:51:17;100195.84;;;26.16;55.94
44825;BME280;30542;47.928;2.138;2023-08-17T14:56:17;100201.25;;;26.16;55.90
44825;BME280;30542;47.928;2.138;2023-08-17T15:01:18;100199.34;;;26.17;55.74
44825;BME280;30542;47.928;2.138;2023-08-17T15:06:18;100199.66;;;26.15;55.78
44825;BME280;30542;47.928;2.138;2023-08-17T15:11:23;100193.84;;;26.22;55.56
44825;BME280;30542;47.928;2.138;2023-08-17T15:16:24;100185.25;;;26.20;55.51
44825;BME280;30542;47.928;2.138;2023-08-17T15:21:27;100193.53;;;26.23;55.25
44825;BME280;30542;47.928;2.138;2023-08-17T15:26:28;100191.00;;;26.27;55.60
44825;BME280;30542;47.928;2.138;2023-08-17T15:31:28;100191.00;;;26.27;55.98
44825;BME280;30542;47.928;2.138;2023-08-17T15:36:28;100189.59;;;26.30;55.70
44825;BME280;30542;47.928;2.138;2023-08-17T15:41:29;100190.38;;;26.30;55.58
44825;BME280;30542;47.928;2.138;2023-08-17T15:46:29;100187.38;;;26.32;55.38
44825;BME280;30542;47.928;2.138;2023-08-17T15:51:29;100195.47;;;26.32;55.28
44825;BME280;30542;47.928;2.138;2023-08-17T15:56:30;100192.31;;;26.30;55.31
44825;BME280;30542;47.928;2.138;2023-08-17T16:01:30;100177.97;;;26.29;55.24
44825;BME280;30542;47.928;2.138;2023-08-17T16:06:31;100180.66;;;26.29;55.10
44825;BME280;30542;47.928;2.138;2023-08-17T16:11:31;100177.50;;;26.27;55.02
44825;BME280;30542;47.928;2.138;2023-08-17T16:16:31;100165.28;;;26.30;55.20
44825;BME280;30542;47.928;2.138;2023-08-17T16:21:32;100163.06;;;26.32;55.06
44825;BME280;30542;47.928;2.138;2023-08-17T16:26:32;100159.13;;;26.38;54.85
44825;BME280;30542;47.928;2.138;2023-08-17T16:31:34;100157.53;;;26.37;54.74
44825;BME280;30542;47.928;2.138;2023-08-17T16:36:34;100160.28;;;26.45;54.80
44825;BME280;30542;47.928;2.138;2023-08-17T16:41:35;100162.19;;;26.45;54.81
44825;BME280;30542;47.928;2.138;2023-08-17T16:46:35;100158.72;;;26.44;54.91
44825;BME280;30542;47.928;2.138;2023-08-17T16:51:36;100162.00;;;26.41;54.73
44825;BME280;30542;47.928;2.138;2023-08-17T16:56:36;100169.50;;;26.44;55.02
44825;BME280;30542;47.928;2.138;2023-08-17T17:01:39;100167.31;;;26.46;54.62
44825;BME280;30542;47.928;2.138;2023-08-17T17:06:39;100162.88;;;26.50;54.57
44825;BME280;30542;47.928;2.138;2023-08-17T17:11:40;100154.28;;;26.48;54.68
44825;BME280;30542;47.928;2.138;2023-08-17T17:16:40;100167.81;;;26.57;54.49
44825;BME280;30542;47.928;2.138;2023-08-17T17:21:41;100164.31;;;26.57;54.45
44825;BME280;30542;47.928;2.138;2023-08-17T17:26:41;100162.59;;;26.61;54.32
44825;BME280;30542;47.928;2.138;2023-08-17T17:31:41;100163.09;;;26.63;54.34
44825;BME280;30542;47.928;2.138;2023-08-17T17:36:42;100155.78;;;26.63;54.41
44825;BME280;30542;47.928;2.138;2023-08-17T17:41:42;100157.53;;;26.68;54.19
44825;BME280;30542;47.928;2.138;2023-08-17T17:46:43;100153.41;;;26.70;54.30
44825;BME280;30542;47.928;2.138;2023-08-17T17:51:43;100152.59;;;26.70;54.33
44825;BME280;30542;47.928;2.138;2023-08-17T17:56:45;100153.91;;;26.72;54.08
44825;BME280;30542;47.928;2.138;2023-08-17T18:01:46;100152.31;;;26.71;54.10
44825;BME280;30542;47.928;2.138;2023-08-17T18:06:46;100159.63;;;26.71;53.93
44825;BME280;30542;47.928;2.138;2023-08-17T18:11:46;100155.63;;;26.68;54.13
44825;BME280;30542;47.928;2.138;2023-08-17T18:16:47;100152.13;;;26.68;54.00
44825;BME280;30542;47.928;2.138;2023-08-17T18:21:47;100146.06;;;26.62;54.09
44825;BME280;30542;47.928;2.138;2023-08-17T18:26:48;100152.56;;;26.61;54.62
44825;BME280;30542;47.928;2.138;2023-08-17T18:31:48;100157.69;;;26.63;54.75
44825;BME280;30542;47.928;2.138;2023-08-17T18:36:50;100163.09;;;26.63;54.67
44825;BME280;30542;47.928;2.138;2023-08-17T18:41:50;100163.38;;;26.61;55.11
44825;BME280;30542;47.928;2.138;2023-08-17T18:46:50;100160.22;;;26.59;55.36
44825;BME280;30542;47.928;2.138;2023-08-17T18:51:51;100155.59;;;26.60;55.29
44825;BME280;30542;47.928;2.138;2023-08-17T18:56:51;100160.50;;;26.58;55.13
44825;BME280;30542;47.928;2.138;2023-08-17T19:01:52;100154.63;;;26.56;55.01
44825;BME280;30542;47.928;2.138;2023-08-17T19:06:52;100156.84;;;26.53;55.40
44825;BME280;30542;47.928;2.138;2023-08-17T19:11:52;100162.56;;;26.52;55.18
44825;BME280;30542;47.928;2.138;2023-08-17T19:16:53;100160.19;;;26.50;55.43
44825;BME280;30542;47.928;2.138;2023-08-17T19:21:53;100172.84;;;26.50;55.44
44825;BME280;30542;47.928;2.138;2023-08-17T19:26:54;100169.38;;;26.49;55.39
44825;BME280;30542;47.928;2.138;2023-08-17T19:31:54;100183.66;;;26.50;55.40
44825;BME280;30542;47.928;2.138;2023-08-17T19:36:55;100184.00;;;26.48;55.35
44825;BME280;30542;47.928;2.138;2023-08-17T19:41:55;100183.50;;;26.46;55.63
44825;BME280;30542;47.928;2.138;2023-08-17T19:46:56;100183.31;;;26.43;55.28
44825;BME280;30542;47.928;2.138;2023-08-17T19:51:56;100190.91;;;26.41;55.71
44825;BME280;30542;47.928;2.138;2023-08-17T19:56:56;100202.03;;;26.39;55.87
44825;BME280;30542;47.928;2.138;2023-08-17T20:01:57;100203.16;;;26.38;55.52
44825;BME280;30542;47.928;2.138;2023-08-17T20:06:57;100197.75;;;26.38;55.37
44825;BME280;30542;47.928;2.138;2023-08-17T20:11:58;100205.06;;;26.38;55.60
44825;BME280;30542;47.928;2.138;2023-08-17T20:16:58;100195.34;;;26.37;55.53
44825;BME280;30542;47.928;2.138;2023-08-17T20:21:58;100195.34;;;26.37;55.20
44825;BME280;30542;47.928;2.138;2023-08-17T20:26:59;100191.84;;;26.36;55.32
44825;BME280;30542;47.928;2.138;2023-08-17T20:32:00;100183.56;;;26.33;55.29
44825;BME280;30542;47.928;2.138;2023-08-17T20:37:00;100185.97;;;26.34;55.27
44825;BME280;30542;47.928;2.138;2023-08-17T20:42:08;100200.56;;;26.33;55.49
44825;BME280;30542;47.928;2.138;2023-08-17T20:47:08;100196.25;;;26.32;55.13
44825;BME280;30542;47.928;2.138;2023-08-17T20:52:10;100190.38;;;26.30;55.52
44825;BME280;30542;47.928;2.138;2023-08-17T20:57:11;100190.38;;;26.30;55.74
44825;BME280;30542;47.928;2.138;2023-08-17T21:02:11;100191.47;;;26.29;55.44
44825;BME280;30542;47.928;2.138;2023-08-17T21:07:11;100193.38;;;26.28;55.48
44825;BME280;30542;47.928;2.138;2023-08-17T21:12:12;100191.00;;;26.27;55.30
44825;BME280;30542;47.928;2.138;2023-08-17T21:17:13;100197.19;;;26.27;55.66
44825;BME280;30542;47.928;2.138;2023-08-17T21:22:13;100195.59;;;26.26;55.37
44825;BME280;30542;47.928;2.138;2023-08-17T21:27:13;100194.81;;;26.26;55.67
44825;BME280;30542;47.928;2.138;2023-08-17T21:32:14;100193.19;;;26.25;55.30
44825;BME280;30542;47.928;2.138;2023-08-17T21:37:26;100205.63;;;26.26;55.70
44825;BME280;30542;47.928;2.138;2023-08-17T21:42:27;100202.41;;;26.24;55.61
44825;BME280;30542;47.928;2.138;2023-08-17T21:47:27;100197.00;;;26.24;55.41
44825;BME280;30542;47.928;2.138;2023-08-17T21:52:27;100190.81;;;26.23;55.74
44825;BME280;30542;47.928;2.138;2023-08-17T21:57:28;100195.91;;;26.25;55.28
44825;BME280;30542;47.928;2.138;2023-08-17T22:02:28;100203.22;;;26.24;55.11
44825;BME280;30542;47.928;2.138;2023-08-17T22:07:28;100200.50;;;26.24;55.24
44825;BME280;30542;47.928;2.138;2023-08-17T22:12:29;100195.91;;;26.25;55.15
44825;BME280;30542;47.928;2.138;2023-08-17T22:17:29;100188.13;;;26.23;55.49
44825;BME280;30542;47.928;2.138;2023-08-17T22:22:29;100196.22;;;26.23;55.42
44825;BME280;30542;47.928;2.138;2023-08-17T22:27:30;100190.03;;;26.23;55.23
44825;BME280;30542;47.928;2.138;2023-08-17T22:32:30;100187.78;;;26.25;55.22
44825;BME280;30542;47.928;2.138;2023-08-17T22:37:30;100184.00;;;26.26;55.37
44825;BME280;30542;47.928;2.138;2023-08-17T22:42:31;100187.78;;;26.25;54.71
44825;BME280;30542;47.928;2.138;2023-08-17T22:47:31;100188.63;;;26.25;55.02
44825;BME280;30542;47.928;2.138;2023-08-17T22:52:31;100177.00;;;26.25;55.02
44825;BME280;30542;47.928;2.138;2023-08-17T22:57:32;100182.41;;;26.25;55.11
44825;BME280;30542;47.928;2.138;2023-08-17T23:02:32;100171.59;;;26.25;54.88
44825;BME280;30542;47.928;2.138;2023-08-17T23:07:33;100170.00;;;26.24;54.98
44825;BME280;30542;47.928;2.138;2023-08-17T23:12:33;100180.81;;;26.24;54.97
44825;BME280;30542;47.928;2.138;2023-08-17T23:17:33;100185.91;;;26.25;54.73
44825;BME280;30542;47.928;2.138;2023-08-17T23:22:34;100173.81;;;26.23;54.73
44825;BME280;30542;47.928;2.138;2023-08-17T23:27:35;100171.44;;;26.21;54.89
44825;BME280;30542;47.928;2.138;2023-08-17T23:32:35;100177.31;;;26.23;54.67
44825;BME280;30542;47.928;2.138;2023-08-17T23:37:36;100168.75;;;26.21;54.47
44825;BME280;30542;47.928;2.138;2023-08-17T23:42:36;100167.44;;;26.19;54.37
44825;BME280;30542;47.928;2.138;2023-08-17T23:47:36;100169.81;;;26.20;54.43
44825;BME280;30542;47.928;2.138;2023-08-17T23:52:36;100174.44;;;26.20;54.27
44825;BME280;30542;47.928;2.138;2023-08-17T23:57:37;100175.56;;;26.19;54.11
